Airfield :
LOGIN :

Register | Disclaimer

   EN    FR    IT 

 










Legend :    VFR   Marginal VFR   IFR   Intensive IFR   Very Intensive IFR
Visi :
Ceiling :
>= 8 km
>= 3000ft
5 to 8 km
1000 to 3000 ft
1500m to 5 km
500 to 1000 ft
800 to 1500m
200 to 500 ft
< 800m
< 200 ft
Symbols :   Thunderstorms  Fog  Heavy snow  Heavy precipitations  Wind > 20 kt
SIGMETs :     Misc.  Thunderstorms  Icing  Turbulence  Mountain Waves  Volcanic Ashes






- Airport Elevation : 247 ft
- IATA code : BLL


EKBI - Billund

CURRENT METAR :
  • 071850Z 22016G27KT 180V250 9999 -SHRA FEW014CB BKN015 14/12 Q1010

EXPIRED METARs :
  • 071820Z 21015G27KT 180V240 9999 FEW014TCU BKN015 14/12 Q1011
  • 071750Z 21016G27KT 9999 FEW014TCU BKN015 14/12 Q1011
  • 071720Z 21015G29KT 9999 FEW014TCU BKN015 14/12 Q1011
  • 071650Z 21016G27KT 170V230 9999 FEW014TCU BKN015 14/12 Q1012
  • 071620Z 22015G27KT 190V250 9999 FEW014TCU BKN015 15/12 Q1012

TAF TAF EKBI
Valid from the 07 at 18:00 until the 08 at 18:00 UTC


071702Z 0718/0818 21018KT 9999 BKN015
BECMG 0718/0721 22020G35KT 4000 RA BKN009 SCT020CB
TEMPO 0721/0724 21018KT 8000 -RADZ SCT009 BKN015
BECMG 0800/0803 22008KT 9999 NSW SCT025
TEMPO 0803/0806 SHRA BKN012 SCT020CB
TEMPO 0806/0815 SHRA SCT020CB
BECMG 0808/0810 28015KT
TEMPO 0815/0818 SCT020TCU



MET'MAP, your aeronautical weather chart ! - Copyright ORBIFLY December 2007 - Disclaimer

ORBIFLY MET'MAP TEAM :

Programming & Development : Alexandra Zaïnal
Original concept : Baudouin d'Aumeries
Technical & hardware support : Manuel Goepfert
Assistance : Marc-Olivier Méhu




SOURCES & CREDITS :

   NOAA